Time;durP1;ratioP1;P1;durP2;ratioP2;P2;SDS_P1;SDS_P2;PMS_P1;PMS_P2;Temp;Humidity;BMP_temperature;BMP_pressure;BME280_temperature;BME280_humidity;BME280_pressure;Samples;Min_cycle;Max_cycle;Signal;HPM_P1;HPM_P2
2023/08/06 00:00:14;;;;;;;3.53;1.10;;;16.50;99.90;;;;;;4971668;28;20031;-78
2023/08/06 00:02:40;;;;;;;0.90;0.80;;;16.50;99.90;;;;;;4989310;28;20043;-78
2023/08/06 00:05:06;;;;;;;3.88;0.80;;;16.60;99.90;;;;;;4989742;28;20507;-78
2023/08/06 00:07:32;;;;;;;0.43;0.43;;;16.60;99.90;;;;;;4973215;28;20030;-78
2023/08/06 00:09:57;;;;;;;1.42;1.08;;;16.60;99.90;;;;;;4975625;28;20030;-76
2023/08/06 00:12:23;;;;;;;1.48;1.15;;;16.60;99.90;;;;;;4993221;28;20525;-79
2023/08/06 00:14:53;;;;;;;1.38;0.70;;;16.70;99.90;;;;;;4975186;28;20022;-78
2023/08/06 00:17:19;;;;;;;1.10;0.95;;;16.70;99.90;;;;;;4993484;28;20033;-78
2023/08/06 00:19:44;;;;;;;0.50;0.50;;;16.70;99.90;;;;;;4975329;28;20026;-79
2023/08/06 00:22:10;;;;;;;2.17;1.33;;;16.70;99.90;;;;;;4975534;28;20040;-78
2023/08/06 00:24:36;;;;;;;0.82;0.52;;;16.70;99.90;;;;;;4993733;28;20464;-78
2023/08/06 00:27:02;;;;;;;1.70;0.60;;;16.70;99.90;;;;;;4960323;28;20118;-78
2023/08/06 00:29:28;;;;;;;0.50;0.50;;;16.70;99.90;;;;;;4973751;28;20089;-78
2023/08/06 00:31:54;;;;;;;0.90;0.73;;;16.70;99.90;;;;;;4972272;28;20007;-79
2023/08/06 00:34:19;;;;;;;2.20;0.82;;;16.70;99.90;;;;;;4973895;28;20034;-78
2023/08/06 00:36:45;;;;;;;1.08;1.00;;;16.70;99.90;;;;;;4971794;28;20131;-78
2023/08/06 00:39:11;;;;;;;0.73;0.73;;;16.70;99.90;;;;;;4973692;28;20041;-78
2023/08/06 00:41:37;;;;;;;1.98;0.73;;;16.70;99.90;;;;;;4972066;28;20471;-78
2023/08/06 00:44:03;;;;;;;1.00;0.90;;;16.70;99.90;;;;;;4973313;28;20554;-77
2023/08/06 00:46:28;;;;;;;1.42;0.73;;;16.60;99.90;;;;;;4973611;28;20027;-78
2023/08/06 00:48:55;;;;;;;0.73;0.68;;;16.60;99.90;;;;;;4957800;28;20490;-78
2023/08/06 00:51:22;;;;;;;1.98;1.05;;;16.70;99.90;;;;;;4973811;28;20375;-79
2023/08/06 00:53:49;;;;;;;3.58;1.30;;;16.60;99.90;;;;;;4974279;28;20031;-79
2023/08/06 00:56:15;;;;;;;1.40;0.60;;;16.60;99.90;;;;;;4975605;28;20041;-78
2023/08/06 00:58:41;;;;;;;1.67;0.55;;;16.50;99.90;;;;;;4975234;28;20031;-79
2023/08/06 01:01:06;;;;;;;0.93;0.40;;;16.60;99.90;;;;;;4975058;28;20027;-78
2023/08/06 01:03:32;;;;;;;0.65;0.60;;;16.60;99.90;;;;;;4975204;28;20522;-79
2023/08/06 01:05:58;;;;;;;0.57;0.55;;;16.60;99.90;;;;;;4973372;28;20027;-78
2023/08/06 01:08:35;;;;;;;0.52;0.52;;;16.60;99.90;;;;;;4957846;28;20030;-78
2023/08/06 01:11:28;;;;;;;1.88;0.73;;;16.50;99.90;;;;;;4957647;28;20479;-79
2023/08/06 01:14:10;;;;;;;0.60;0.60;;;16.50;99.90;;;;;;4974015;28;20125;-78
2023/08/06 01:16:36;;;;;;;1.13;0.65;;;16.40;99.90;;;;;;4974648;28;20019;-78
2023/08/06 01:19:02;;;;;;;5.72;0.68;;;16.50;99.90;;;;;;4956188;28;20112;-77
2023/08/06 01:21:28;;;;;;;1.80;1.15;;;16.40;99.90;;;;;;4972876;28;20050;-78
2023/08/06 01:23:53;;;;;;;0.40;0.40;;;16.50;99.90;;;;;;4974451;28;20051;-77
2023/08/06 01:26:22;;;;;;;0.75;0.70;;;16.40;99.90;;;;;;4956710;28;20109;-79
2023/08/06 01:29:10;;;;;;;2.17;0.80;;;16.40;99.90;;;;;;4957551;28;20121;-78
2023/08/06 01:31:38;;;;;;;1.08;0.60;;;16.30;99.90;;;;;;4974446;28;20085;-79
2023/08/06 01:34:07;;;;;;;2.05;1.30;;;16.30;99.90;;;;;;4975449;28;20054;-78
2023/08/06 01:36:33;;;;;;;;;;;16.20;99.90;;;;;;4973830;28;20122;-78
2023/08/06 01:38:59;;;;;;;2.88;0.63;;;16.10;99.90;;;;;;4974194;28;19984;-77
2023/08/06 01:41:25;;;;;;;3.25;0.80;;;16.20;99.90;;;;;;4974173;28;20511;-78
2023/08/06 01:43:51;;;;;;;1.13;0.70;;;16.10;99.90;;;;;;4972277;28;20121;-78
2023/08/06 01:46:17;;;;;;;0.77;0.77;;;16.00;99.90;;;;;;4972240;28;20507;-79
2023/08/06 01:48:43;;;;;;;5.35;1.05;;;16.10;99.90;;;;;;4973932;28;20595;-78
2023/08/06 01:51:09;;;;;;;0.52;0.50;;;16.00;99.90;;;;;;4973872;28;20214;-78
2023/08/06 01:53:34;;;;;;;0.60;0.50;;;16.10;99.90;;;;;;4973260;28;20070;-79
2023/08/06 01:56:00;;;;;;;1.48;0.80;;;16.20;99.90;;;;;;4973401;28;20106;-78
2023/08/06 01:58:25;;;;;;;1.08;0.63;;;16.20;99.90;;;;;;4970716;28;20422;-79
2023/08/06 02:00:51;;;;;;;2.53;1.00;;;16.20;99.90;;;;;;4971950;28;20483;-78
2023/08/06 02:03:17;;;;;;;1.80;0.82;;;16.20;99.90;;;;;;4970329;28;20086;-78
2023/08/06 02:05:42;;;;;;;3.50;1.13;;;16.30;99.90;;;;;;4987056;28;20138;-79
2023/08/06 02:08:08;;;;;;;4.57;0.65;;;16.30;99.90;;;;;;4972429;28;20118;-78
2023/08/06 02:10:34;;;;;;;2.85;0.75;;;16.30;99.90;;;;;;4971893;28;20473;-78
2023/08/06 02:13:00;;;;;;;0.80;0.60;;;16.40;99.90;;;;;;4972208;28;20522;-78
2023/08/06 02:15:25;;;;;;;2.53;1.10;;;16.30;99.90;;;;;;4987660;28;20061;-78
2023/08/06 02:17:51;;;;;;;3.72;0.75;;;16.30;99.90;;;;;;4988862;28;20027;-77
2023/08/06 02:20:16;;;;;;;2.92;1.20;;;16.30;99.90;;;;;;4972991;28;20026;-78
2023/08/06 02:22:42;;;;;;;2.85;0.85;;;16.20;99.90;;;;;;4987770;28;20062;-79
2023/08/06 02:25:08;;;;;;;1.23;0.60;;;16.20;99.90;;;;;;4988751;28;20027;-79
2023/08/06 02:27:33;;;;;;;2.28;0.90;;;16.20;99.90;;;;;;4988487;28;20034;-78
2023/08/06 02:29:59;;;;;;;1.17;1.02;;;16.20;99.90;;;;;;4973085;28;20018;-78
2023/08/06 02:32:25;;;;;;;4.65;1.25;;;16.10;99.90;;;;;;4988163;28;20050;-77
2023/08/06 02:34:51;;;;;;;2.00;0.88;;;16.10;99.90;;;;;;4987891;28;20510;-78
2023/08/06 02:37:16;;;;;;;4.68;0.70;;;16.10;99.90;;;;;;4987966;28;20050;-78
2023/08/06 02:39:43;;;;;;;2.58;1.40;;;16.10;99.90;;;;;;4988055;28;20026;-78
2023/08/06 02:42:09;;;;;;;24.45;1.63;;;16.20;99.90;;;;;;4988659;28;20391;-78
2023/08/06 02:44:35;;;;;;;1.55;0.50;;;16.20;99.90;;;;;;4973990;28;20038;-78
2023/08/06 02:47:01;;;;;;;1.33;0.60;;;15.90;99.90;;;;;;4981237;28;20081;-78
2023/08/06 02:49:27;;;;;;;2.40;0.98;;;15.10;99.90;;;;;;4972614;28;20035;-77
2023/08/06 02:51:52;;;;;;;7.15;0.85;;;14.40;99.90;;;;;;4971903;28;20023;-78
2023/08/06 02:54:19;;;;;;;1.08;0.95;;;13.90;99.90;;;;;;4987439;28;20035;-78
2023/08/06 02:56:48;;;;;;;2.72;0.80;;;13.60;99.90;;;;;;4996418;28;20139;-81
2023/08/06 02:59:13;;;;;;;2.80;1.13;;;13.30;99.90;;;;;;4983097;28;20027;-79
2023/08/06 03:01:39;;;;;;;3.55;1.42;;;12.90;99.90;;;;;;4978543;28;20326;-78
2023/08/06 03:04:05;;;;;;;6.10;1.05;;;12.40;99.90;;;;;;4977840;28;20079;-78
2023/08/06 03:06:31;;;;;;;3.33;1.00;;;12.10;99.90;;;;;;4993205;28;20027;-80
2023/08/06 03:08:57;;;;;;;0.65;0.65;;;12.00;99.90;;;;;;4981808;28;20023;-80
2023/08/06 03:11:22;;;;;;;4.05;1.30;;;12.00;99.90;;;;;;4999999;28;20110;-80
2023/08/06 03:13:48;;;;;;;5.40;0.60;;;12.00;99.90;;;;;;5005614;28;20063;-81
2023/08/06 03:16:14;;;;;;;1.92;0.60;;;12.00;99.90;;;;;;5009014;28;20027;-81
2023/08/06 03:18:40;;;;;;;7.38;2.38;;;11.90;99.90;;;;;;4988510;28;20054;-79
2023/08/06 03:21:05;;;;;;;1.08;0.98;;;11.90;99.90;;;;;;5002675;28;20023;-80
2023/08/06 03:23:31;;;;;;;5.82;1.35;;;11.90;99.90;;;;;;5002774;28;20050;-81
2023/08/06 03:26:02;;;;;;;2.30;0.93;;;11.90;99.90;;;;;;5008967;28;20019;-81
2023/08/06 03:28:28;;;;;;;1.63;0.90;;;11.90;99.90;;;;;;4991450;28;20046;-79
2023/08/06 03:31:03;;;;;;;3.55;0.85;;;11.90;99.90;;;;;;4987141;28;20019;-81
2023/08/06 03:33:29;;;;;;;4.50;1.45;;;11.90;99.90;;;;;;5006941;28;20055;-81
2023/08/06 03:35:56;;;;;;;2.10;0.55;;;11.90;99.90;;;;;;5009252;28;20022;-81
2023/08/06 03:38:22;;;;;;;1.45;0.70;;;11.90;99.90;;;;;;4988489;28;20057;-81
2023/08/06 03:40:50;;;;;;;4.78;1.25;;;11.80;99.90;;;;;;5009397;28;20033;-81
2023/08/06 03:43:17;;;;;;;5.53;1.70;;;11.90;99.90;;;;;;4995698;28;20110;-82
2023/08/06 03:45:44;;;;;;;1.33;0.60;;;11.90;99.90;;;;;;4998100;28;20019;-81
2023/08/06 03:48:10;;;;;;;7.47;1.48;;;10.90;99.90;;;;;;5012432;28;20034;-82
2023/08/06 03:50:38;;;;;;;1.20;0.63;;;11.90;99.90;;;;;;5014097;28;20046;-81
2023/08/06 03:56:40;;;;;;;3.17;0.85;;;12.00;99.90;;;;;;4941699;29;20067;-82
2023/08/06 04:01:41;;;;;;;4.68;0.80;;;12.00;99.90;;;;;;5279586;23;20050;-82
2023/08/06 04:04:12;;;;;;;5.68;0.85;;;12.00;99.90;;;;;;4999995;28;20121;-82
2023/08/06 04:09:23;;;;;;;3.13;0.75;;;12.00;99.90;;;;;;5021093;28;20106;-82
2023/08/06 04:12:01;;;;;;;1.35;0.70;;;11.90;99.90;;;;;;5000433;28;20027;-82
2023/08/06 04:14:27;;;;;;;1.38;0.63;;;11.90;99.90;;;;;;4985001;28;20106;-81
2023/08/06 04:16:56;;;;;;;3.15;0.90;;;12.00;99.90;;;;;;5014239;28;20022;-81
2023/08/06 04:22:21;;;;;;;3.10;1.38;;;12.10;99.90;;;;;;4993856;28;19928;-80
2023/08/06 04:24:47;;;;;;;2.45;0.77;;;12.10;99.90;;;;;;4990095;28;20030;-80
2023/08/06 04:27:15;;;;;;;1.63;0.93;;;12.10;99.90;;;;;;5004636;28;20053;-79
2023/08/06 04:29:40;;;;;;;0.50;0.50;;;12.10;99.90;;;;;;4982982;28;20030;-79
2023/08/06 04:32:09;;;;;;;0.90;0.90;;;12.10;99.90;;;;;;4983316;28;20034;-78
2023/08/06 04:34:36;;;;;;;2.60;1.00;;;12.10;99.90;;;;;;4981533;28;20018;-79
2023/08/06 04:37:02;;;;;;;4.05;1.02;;;12.10;99.90;;;;;;4982046;28;20036;-79
2023/08/06 04:39:28;;;;;;;6.35;1.52;;;12.10;99.90;;;;;;5000068;28;20030;-79
2023/08/06 04:41:55;;;;;;;2.38;1.15;;;12.10;99.90;;;;;;4980948;28;20046;-78
2023/08/06 04:44:21;;;;;;;6.13;0.98;;;12.00;99.90;;;;;;4997622;28;20031;-78
2023/08/06 04:46:46;;;;;;;6.15;1.27;;;12.00;99.90;;;;;;4980022;28;20113;-79
2023/08/06 04:49:12;;;;;;;3.28;1.17;;;12.00;99.90;;;;;;4978807;28;20470;-78
2023/08/06 04:51:38;;;;;;;5.65;0.85;;;12.00;99.90;;;;;;4980361;28;20230;-78
2023/08/06 04:54:04;;;;;;;4.75;1.05;;;12.00;99.90;;;;;;4980243;28;20085;-78
2023/08/06 04:56:29;;;;;;;6.60;1.40;;;12.10;99.90;;;;;;4979448;28;20026;-78
2023/08/06 04:58:55;;;;;;;2.88;1.38;;;12.10;99.90;;;;;;4978521;28;20046;-79
2023/08/06 05:01:21;;;;;;;0.63;0.63;;;12.20;99.90;;;;;;4977972;28;20146;-78
2023/08/06 05:03:47;;;;;;;1.90;1.38;;;12.20;99.90;;;;;;4978157;28;20034;-78
2023/08/06 05:06:13;;;;;;;3.35;1.08;;;12.20;99.90;;;;;;4979528;28;20506;-77
2023/08/06 05:08:39;;;;;;;2.40;0.85;;;12.30;99.90;;;;;;4980847;28;20111;-79
2023/08/06 05:11:07;;;;;;;9.80;1.50;;;12.30;99.90;;;;;;4987006;28;20029;-80
2023/08/06 05:13:34;;;;;;;2.97;0.93;;;12.30;99.90;;;;;;4990555;28;20018;-80
2023/08/06 05:16:21;;;;;;;1.60;0.95;;;12.20;99.90;;;;;;4997050;28;20029;-82
2023/08/06 05:18:49;;;;;;;1.75;0.70;;;12.20;99.90;;;;;;5017364;28;20034;-82
2023/08/06 05:21:16;;;;;;;0.47;0.47;;;12.20;99.90;;;;;;4994756;28;20026;-80
2023/08/06 05:24:00;;;;;;;2.25;0.40;;;12.20;99.90;;;;;;5014630;28;20030;-82
2023/08/06 05:26:47;;;;;;;2.72;0.73;;;12.20;99.90;;;;;;4997696;28;20011;-82
2023/08/06 05:29:11;;;;;;;1.77;0.35;;;12.20;99.90;;;;;;5014477;28;20076;-82
2023/08/06 05:31:59;;;;;;;2.97;0.88;;;12.30;99.90;;;;;;5001538;28;20018;-82
2023/08/06 05:34:29;;;;;;;4.57;1.80;;;12.30;99.90;;;;;;4997978;28;20043;-82
2023/08/06 05:37:32;;;;;;;3.95;1.67;;;12.30;99.90;;;;;;4994907;28;20089;-81
2023/08/06 05:39:59;;;;;;;1.60;0.63;;;12.30;99.90;;;;;;4993650;28;20057;-81
2023/08/06 05:42:30;;;;;;;2.53;1.05;;;12.30;99.90;;;;;;4997906;28;20064;-81
2023/08/06 05:45:00;;;;;;;0.50;0.50;;;12.40;99.90;;;;;;4995918;28;20035;-81
2023/08/06 05:47:27;;;;;;;1.13;0.43;;;12.60;99.90;;;;;;4979263;28;20515;-81
2023/08/06 05:50:08;;;;;;;8.38;1.50;;;12.60;99.90;;;;;;4995220;28;20026;-81
2023/08/06 05:52:34;;;;;;;2.00;0.47;;;12.60;99.90;;;;;;4996934;28;20101;-81
2023/08/06 05:58:19;;;;;;;2.95;0.85;;;12.60;99.90;;;;;;4973411;28;20054;-82
2023/08/06 06:00:59;;;;;;;0.60;0.47;;;12.60;99.90;;;;;;4991327;28;20027;-81
2023/08/06 06:03:30;;;;;;;1.90;0.88;;;13.60;99.90;;;;;;4976739;28;20028;-82
2023/08/06 06:06:24;;;;;;;0.88;0.47;;;12.60;99.90;;;;;;4979456;28;20026;-83
2023/08/06 06:09:57;;;;;;;1.33;0.63;;;12.60;99.90;;;;;;4980867;28;20039;-83
2023/08/06 06:12:47;;;;;;;1.13;0.40;;;11.40;99.90;;;;;;4979115;28;20035;-83
2023/08/06 06:15:59;;;;;;;;;;;;;;;;;;;;;
2023/08/06 06:19:13;;;;;;;0.43;0.43;;;12.50;99.90;;;;;;4952244;28;20027;-82
2023/08/06 06:21:53;;;;;;;0.63;0.63;;;12.50;99.90;;;;;;4968878;28;20119;-81
2023/08/06 06:24:19;;;;;;;0.75;0.63;;;12.40;99.90;;;;;;4975983;29;20027;-82
2023/08/06 06:26:45;;;;;;;1.20;0.38;;;12.40;99.90;;;;;;4978843;28;20039;-82
2023/08/06 06:32:21;;;;;;;0.10;0.10;;;12.40;99.90;;;;;;5115274;23;20110;-82
2023/08/06 06:34:47;;;;;;;0.15;0.15;;;12.40;99.90;;;;;;5015607;28;20035;-82
2023/08/06 06:37:13;;;;;;;0.40;0.20;;;12.50;99.90;;;;;;4998131;28;20032;-82
2023/08/06 06:39:39;;;;;;;0.17;0.17;;;12.50;99.90;;;;;;4998844;28;20026;-82
2023/08/06 06:48:19;;;;;;;0.13;0.13;;;12.60;99.90;;;;;;5038238;23;20073;-82
2023/08/06 06:50:51;;;;;;;0.20;0.20;;;12.50;99.90;;;;;;5014591;28;20081;-81
2023/08/06 06:53:16;;;;;;;0.20;0.20;;;13.00;99.90;;;;;;4980088;28;20062;-82
2023/08/06 06:55:42;;;;;;;0.10;0.10;;;12.50;99.90;;;;;;4992204;28;20049;-81
2023/08/06 06:58:08;;;;;;;0.10;0.10;;;12.40;99.90;;;;;;4996155;28;20022;-81
2023/08/06 07:00:36;;;;;;;0.15;0.00;;;12.40;99.90;;;;;;5015241;28;20010;-81
2023/08/06 07:03:03;;;;;;;1.85;0.43;;;12.30;99.90;;;;;;5010879;28;20030;-81
2023/08/06 07:13:16;;;;;;;0.00;0.00;;;12.40;99.90;;;;;;5388967;23;20087;-81
2023/08/06 07:15:42;;;;;;;0.10;0.10;;;12.30;99.90;;;;;;4991730;28;20034;-82
2023/08/06 07:18:17;;;;;;;0.10;0.10;;;12.40;99.90;;;;;;4989723;28;20034;-81
2023/08/06 07:20:51;;;;;;;0.10;0.10;;;12.50;99.90;;;;;;5278947;23;20026;-79
2023/08/06 07:23:17;;;;;;;0.10;0.10;;;12.60;99.90;;;;;;4988461;28;20057;-77
2023/08/06 07:25:43;;;;;;;0.22;0.10;;;12.50;99.90;;;;;;4973094;28;20121;-78
2023/08/06 07:28:09;;;;;;;0.25;0.15;;;12.50;99.90;;;;;;4990838;28;20093;-78
2023/08/06 07:30:38;;;;;;;2.20;0.25;;;12.70;99.90;;;;;;4972912;28;20026;-78
2023/08/06 07:33:04;;;;;;;0.28;0.10;;;12.60;99.90;;;;;;4972914;28;20181;-76
2023/08/06 07:35:30;;;;;;;0.17;0.10;;;12.60;99.90;;;;;;4989211;28;20155;-77
2023/08/06 07:37:55;;;;;;;0.10;0.10;;;12.70;99.90;;;;;;4990243;28;20537;-77
2023/08/06 07:40:21;;;;;;;0.25;0.25;;;12.90;99.90;;;;;;4990002;28;20037;-77
2023/08/06 07:42:47;;;;;;;0.10;0.10;;;13.00;99.90;;;;;;4990181;28;20117;-77
2023/08/06 07:45:12;;;;;;;0.35;0.32;;;13.10;99.90;;;;;;4990390;28;20026;-77
2023/08/06 07:47:38;;;;;;;0.10;0.10;;;13.10;99.90;;;;;;4990625;28;20481;-78
2023/08/06 07:50:04;;;;;;;0.20;0.20;;;13.10;99.90;;;;;;4990403;28;20027;-76
2023/08/06 07:52:29;;;;;;;0.35;0.20;;;13.20;99.90;;;;;;4990255;28;20032;-78
2023/08/06 07:54:55;;;;;;;0.20;0.20;;;13.20;99.90;;;;;;4972754;28;20113;-78
2023/08/06 07:57:21;;;;;;;1.10;0.52;;;13.20;99.90;;;;;;4986434;28;20026;-78
2023/08/06 07:59:46;;;;;;;0.20;0.17;;;13.20;99.90;;;;;;4970619;28;20027;-78
2023/08/06 08:02:12;;;;;;;1.45;0.40;;;13.20;99.90;;;;;;4971040;28;20030;-78
2023/08/06 08:04:38;;;;;;;0.40;0.40;;;13.20;99.90;;;;;;4953700;28;20550;-77
2023/08/06 08:07:03;;;;;;;0.15;0.15;;;13.20;99.90;;;;;;4953610;28;20023;-77
2023/08/06 08:09:29;;;;;;;0.25;0.20;;;13.20;99.90;;;;;;4954431;28;20506;-77
2023/08/06 08:11:55;;;;;;;0.25;0.17;;;13.20;99.90;;;;;;4972771;28;20030;-77
2023/08/06 08:14:20;;;;;;;1.08;0.30;;;13.40;99.90;;;;;;4993784;28;20026;-77
2023/08/06 08:16:46;;;;;;;0.20;0.20;;;13.50;99.90;;;;;;4992812;28;20050;-76
2023/08/06 08:19:12;;;;;;;1.25;0.30;;;13.50;99.90;;;;;;4972730;28;20022;-76
2023/08/06 08:21:37;;;;;;;1.98;0.20;;;13.50;99.90;;;;;;4994926;28;20483;-76
2023/08/06 08:24:04;;;;;;;1.75;0.40;;;13.60;99.90;;;;;;5000947;28;20424;-77
2023/08/06 08:26:30;;;;;;;0.28;0.28;;;13.70;99.90;;;;;;4983812;28;20046;-77
2023/08/06 08:28:56;;;;;;;0.22;0.13;;;13.80;99.90;;;;;;5002617;28;20029;-77
2023/08/06 08:31:22;;;;;;;0.10;0.10;;;14.00;99.90;;;;;;5004669;28;20024;-76
2023/08/06 08:33:48;;;;;;;0.10;0.10;;;14.10;99.90;;;;;;4987057;28;20042;-77
2023/08/06 08:36:13;;;;;;;0.32;0.30;;;14.10;99.90;;;;;;5003736;28;20033;-76
2023/08/06 08:38:39;;;;;;;0.10;0.10;;;14.00;99.90;;;;;;5004309;28;20108;-76
2023/08/06 08:41:06;;;;;;;0.20;0.10;;;13.80;99.90;;;;;;5003721;28;20057;-77
2023/08/06 08:43:32;;;;;;;0.03;0.03;;;13.80;99.90;;;;;;5002339;28;20040;-76
2023/08/06 08:45:59;;;;;;;0.20;0.20;;;13.70;99.90;;;;;;4997444;28;20061;-77
2023/08/06 08:48:26;;;;;;;0.10;0.10;;;13.80;99.90;;;;;;5001027;28;20483;-77
2023/08/06 08:50:53;;;;;;;0.40;0.20;;;13.90;99.90;;;;;;4998280;28;20048;-77
2023/08/06 08:53:18;;;;;;;0.52;0.20;;;13.90;99.90;;;;;;5002088;28;20050;-76
2023/08/06 08:55:48;;;;;;;0.65;0.20;;;13.80;99.90;;;;;;5003130;28;20014;-76
2023/08/06 08:58:14;;;;;;;0.10;0.10;;;13.60;99.90;;;;;;4984178;28;20065;-77
2023/08/06 09:00:42;;;;;;;0.17;0.08;;;13.50;99.90;;;;;;4985798;28;20029;-76
2023/08/06 09:03:08;;;;;;;0.00;0.00;;;13.60;99.90;;;;;;5003598;28;20210;-76
2023/08/06 09:05:35;;;;;;;0.30;0.30;;;13.60;99.90;;;;;;5003728;28;20086;-76
2023/08/06 09:08:03;;;;;;;0.10;0.10;;;13.60;99.90;;;;;;5003003;28;20274;-78
2023/08/06 09:10:29;;;;;;;0.10;0.00;;;13.70;99.90;;;;;;5002387;28;20037;-77
2023/08/06 09:12:56;;;;;;;0.95;0.10;;;13.70;99.90;;;;;;5001161;28;20022;-77
2023/08/06 09:15:26;;;;;;;1.42;0.40;;;13.80;99.90;;;;;;4985840;28;20022;-78
2023/08/06 09:17:52;;;;;;;;;;;14.30;99.90;;;;;;5003522;28;20033;-77
2023/08/06 09:20:18;;;;;;;0.20;0.20;;;14.30;99.90;;;;;;4997272;28;19910;-76
2023/08/06 09:22:45;;;;;;;0.25;0.20;;;14.10;99.90;;;;;;4999754;28;20441;-78
2023/08/06 09:25:13;;;;;;;0.20;0.20;;;14.10;99.90;;;;;;4985748;28;20016;-77
2023/08/06 09:27:39;;;;;;;0.47;0.20;;;14.30;99.90;;;;;;4985715;28;20318;-77
2023/08/06 09:30:06;;;;;;;0.13;0.13;;;14.40;99.90;;;;;;5001597;28;20018;-78
2023/08/06 09:32:47;;;;;;;0.13;0.10;;;14.10;99.90;;;;;;5003215;28;20014;-77
2023/08/06 09:35:17;;;;;;;0.20;0.20;;;14.00;99.90;;;;;;4982950;28;20022;-77
2023/08/06 09:37:42;;;;;;;0.30;0.10;;;14.00;99.90;;;;;;5002637;28;20010;-76
2023/08/06 09:40:29;;;;;;;0.10;0.10;;;14.00;99.90;;;;;;5000312;28;20117;-78
2023/08/06 09:42:54;;;;;;;0.10;0.10;;;14.10;99.90;;;;;;4991071;28;20034;-77
2023/08/06 09:45:24;;;;;;;0.10;0.10;;;14.30;99.90;;;;;;4994031;28;20468;-76
2023/08/06 09:47:56;;;;;;;0.32;0.32;;;14.40;99.90;;;;;;5001522;28;20037;-78
2023/08/06 09:50:22;;;;;;;0.10;0.10;;;14.50;99.90;;;;;;4962802;28;20070;-77
2023/08/06 09:52:50;;;;;;;0.15;0.15;;;14.50;99.90;;;;;;4975159;28;20027;-77
2023/08/06 09:55:16;;;;;;;0.10;0.10;;;14.30;99.90;;;;;;4979786;28;20026;-75
2023/08/06 09:57:42;;;;;;;0.20;0.20;;;14.10;99.90;;;;;;4963979;28;20015;-76
2023/08/06 10:00:10;;;;;;;0.30;0.10;;;14.20;99.90;;;;;;4980744;28;20030;-75
2023/08/06 10:02:39;;;;;;;0.50;0.50;;;14.20;99.90;;;;;;4981287;28;20218;-76
2023/08/06 10:05:06;;;;;;;0.20;0.20;;;14.30;99.90;;;;;;4964323;28;20023;-76
2023/08/06 10:07:32;;;;;;;0.30;0.30;;;14.40;99.90;;;;;;4992029;28;20238;-77
2023/08/06 10:09:59;;;;;;;0.25;0.20;;;14.30;99.90;;;;;;4987373;28;20027;-77
2023/08/06 10:12:28;;;;;;;1.00;0.20;;;14.30;99.90;;;;;;4965974;28;20031;-76
2023/08/06 10:14:57;;;;;;;0.30;0.30;;;14.30;99.90;;;;;;4982597;28;20031;-76
2023/08/06 10:17:23;;;;;;;0.52;0.28;;;14.50;99.90;;;;;;4964905;28;20301;-76
2023/08/06 10:19:51;;;;;;;1.40;0.30;;;14.70;99.90;;;;;;4982132;28;20045;-76
2023/08/06 10:22:18;;;;;;;0.30;0.30;;;14.90;99.90;;;;;;4982027;28;20067;-78
2023/08/06 10:24:53;;;;;;;0.45;0.30;;;14.90;99.90;;;;;;4982398;28;20090;-77
2023/08/06 10:28:02;;;;;;;0.13;0.10;;;15.10;99.90;;;;;;4965205;28;20027;-77
2023/08/06 10:30:32;;;;;;;0.30;0.30;;;15.10;99.90;;;;;;4960589;28;20058;-76
2023/08/06 10:33:05;;;;;;;0.20;0.20;;;15.00;99.90;;;;;;4981254;28;20057;-77
2023/08/06 10:35:50;;;;;;;0.95;0.20;;;15.20;99.90;;;;;;4965749;28;20458;-77
2023/08/06 10:38:25;;;;;;;1.58;0.20;;;15.40;99.90;;;;;;4990565;28;20027;-77
2023/08/06 10:40:54;;;;;;;1.35;0.40;;;15.30;99.90;;;;;;4981040;28;20025;-75
2023/08/06 10:43:29;;;;;;;0.35;0.20;;;15.40;99.90;;;;;;4983318;28;20049;-77
2023/08/06 10:45:56;;;;;;;0.65;0.15;;;15.30;99.90;;;;;;4983380;28;20203;-76
2023/08/06 10:48:33;;;;;;;0.28;0.20;;;15.20;99.90;;;;;;4984618;28;20026;-77
2023/08/06 10:51:00;;;;;;;0.43;0.32;;;15.20;99.90;;;;;;5001360;28;20048;-75
2023/08/06 10:53:26;;;;;;;0.35;0.30;;;15.50;99.90;;;;;;4983815;28;20050;-76
2023/08/06 10:55:52;;;;;;;0.20;0.17;;;15.40;99.90;;;;;;4983444;28;20045;-77
2023/08/06 10:58:17;;;;;;;0.30;0.30;;;15.30;99.90;;;;;;5000622;28;20022;-76
2023/08/06 11:00:43;;;;;;;0.30;0.20;;;15.60;99.90;;;;;;4983708;28;20455;-77
2023/08/06 11:03:09;;;;;;;0.10;0.10;;;15.80;99.90;;;;;;4964545;28;20043;-75
2023/08/06 11:05:35;;;;;;;0.43;0.43;;;15.90;99.90;;;;;;4981754;28;20219;-76
2023/08/06 11:08:01;;;;;;;0.35;0.35;;;16.20;99.90;;;;;;4982291;28;20062;-76
2023/08/06 11:10:27;;;;;;;2.20;0.30;;;16.80;99.90;;;;;;4982178;28;20211;-76
2023/08/06 11:12:53;;;;;;;2.63;0.40;;;16.80;99.90;;;;;;4964196;28;20097;-76
2023/08/06 11:15:20;;;;;;;0.20;0.20;;;16.40;99.90;;;;;;4981274;28;20094;-76
2023/08/06 11:17:47;;;;;;;1.60;0.63;;;16.10;99.90;;;;;;4963749;28;20062;-76
2023/08/06 11:20:13;;;;;;;0.63;0.35;;;16.20;99.90;;;;;;4964425;28;20023;-76
2023/08/06 11:22:39;;;;;;;0.55;0.30;;;16.40;99.90;;;;;;4963821;28;20054;-75
2023/08/06 11:25:06;;;;;;;0.90;0.85;;;16.50;99.90;;;;;;4964309;28;20068;-78
2023/08/06 11:27:32;;;;;;;0.52;0.50;;;16.50;99.90;;;;;;4967596;28;20018;-76
2023/08/06 11:29:58;;;;;;;0.40;0.35;;;16.20;99.90;;;;;;4982595;28;20065;-77
2023/08/06 11:32:24;;;;;;;0.43;0.43;;;16.40;99.90;;;;;;4963304;28;20026;-77
2023/08/06 11:34:50;;;;;;;0.52;0.52;;;16.10;99.90;;;;;;4980779;28;20030;-77
2023/08/06 11:37:16;;;;;;;0.73;0.60;;;15.80;99.90;;;;;;4980669;28;20119;-77
2023/08/06 11:39:47;;;;;;;0.57;0.50;;;15.80;99.90;;;;;;4981150;28;20027;-77
2023/08/06 11:42:13;;;;;;;0.63;0.63;;;15.70;99.90;;;;;;4959277;28;20039;-77
2023/08/06 11:44:44;;;;;;;0.63;0.63;;;15.90;99.90;;;;;;4970567;28;20027;-76
2023/08/06 11:47:16;;;;;;;0.50;0.50;;;15.90;99.90;;;;;;4983551;28;20318;-76
2023/08/06 11:49:45;;;;;;;0.60;0.60;;;16.50;99.90;;;;;;4982905;28;20026;-76
2023/08/06 11:52:19;;;;;;;1.60;0.60;;;17.00;99.90;;;;;;4999307;28;20022;-76
2023/08/06 11:55:07;;;;;;;0.63;0.63;;;16.30;99.90;;;;;;4982812;28;20026;-76
2023/08/06 11:57:37;;;;;;;0.47;0.45;;;15.40;99.90;;;;;;4983510;28;20356;-76
2023/08/06 12:00:06;;;;;;;;;;;15.50;99.90;;;;;;4979904;28;20101;-75
2023/08/06 12:02:37;;;;;;;0.30;0.30;;;14.90;99.90;;;;;;4974836;28;19925;-76
2023/08/06 12:05:14;;;;;;;0.50;0.50;;;14.50;99.90;;;;;;4984671;28;20023;-77
2023/08/06 12:07:51;;;;;;;0.35;0.30;;;14.10;99.90;;;;;;4966792;28;20041;-77
2023/08/06 12:10:17;;;;;;;0.40;0.40;;;13.80;99.90;;;;;;4975979;28;20034;-78
2023/08/06 12:12:43;;;;;;;0.25;0.22;;;13.90;99.90;;;;;;5005061;28;20053;-78
2023/08/06 12:15:09;;;;;;;0.85;0.60;;;13.50;99.90;;;;;;4987273;28;20230;-77
2023/08/06 12:17:36;;;;;;;0.60;0.60;;;13.50;99.90;;;;;;4986445;28;20053;-77
2023/08/06 12:20:04;;;;;;;0.65;0.65;;;13.40;99.90;;;;;;4987471;28;20014;-78
2023/08/06 12:22:35;;;;;;;0.55;0.55;;;13.70;99.90;;;;;;5004407;28;20038;-77
2023/08/06 12:25:03;;;;;;;0.35;0.35;;;13.80;99.90;;;;;;4987585;28;20019;-76
2023/08/06 12:27:29;;;;;;;0.47;0.47;;;14.00;99.90;;;;;;4969782;28;20030;-76
2023/08/06 12:29:54;;;;;;;2.30;1.20;;;14.10;99.90;;;;;;4969328;28;20018;-77
2023/08/06 12:32:20;;;;;;;0.70;0.70;;;14.90;99.90;;;;;;4966757;28;20031;-79
2023/08/06 12:34:46;;;;;;;2.72;0.80;;;15.40;99.90;;;;;;4966699;28;20026;-78
2023/08/06 12:37:11;;;;;;;1.85;0.77;;;16.00;99.90;;;;;;4962209;28;20050;-78
2023/08/06 12:39:37;;;;;;;1.00;1.00;;;16.50;99.90;;;;;;4983418;28;20303;-78
2023/08/06 12:42:04;;;;;;;1.75;0.68;;;17.10;99.90;;;;;;4966394;28;20069;-78
2023/08/06 12:44:30;;;;;;;1.55;1.00;;;17.60;99.90;;;;;;4966221;28;20038;-77
2023/08/06 12:46:56;;;;;;;0.73;0.52;;;18.20;99.90;;;;;;4966492;28;20019;-78
2023/08/06 12:49:22;;;;;;;0.60;0.60;;;17.10;99.90;;;;;;4983469;28;20042;-77
2023/08/06 12:51:49;;;;;;;1.08;0.60;;;16.10;99.90;;;;;;4967349;28;20093;-78
2023/08/06 12:54:18;;;;;;;0.50;0.40;;;15.40;99.90;;;;;;4973359;28;20265;-77
2023/08/06 12:56:48;;;;;;;0.85;0.85;;;14.60;99.90;;;;;;4985686;28;20031;-78
2023/08/06 12:59:15;;;;;;;1.33;0.60;;;14.30;99.90;;;;;;5003485;28;20277;-78
2023/08/06 13:01:41;;;;;;;0.73;0.60;;;14.10;99.90;;;;;;5000612;28;20077;-76
2023/08/06 13:04:07;;;;;;;0.55;0.47;;;14.20;99.90;;;;;;4982613;28;20026;-76
2023/08/06 13:06:36;;;;;;;2.25;0.98;;;14.20;99.90;;;;;;4985374;28;20030;-78
2023/08/06 13:09:08;;;;;;;0.73;0.70;;;14.50;99.90;;;;;;5002932;28;20018;-77
2023/08/06 13:11:34;;;;;;;0.80;0.57;;;15.10;99.90;;;;;;5001439;28;20113;-78
2023/08/06 13:14:08;;;;;;;0.80;0.68;;;16.70;99.90;;;;;;5000646;28;20042;-78
2023/08/06 13:16:38;;;;;;;0.88;0.50;;;17.50;99.90;;;;;;4983066;28;20373;-78
2023/08/06 13:19:05;;;;;;;0.80;0.70;;;18.00;99.90;;;;;;5000488;28;20234;-76
2023/08/06 13:21:51;;;;;;;0.73;0.40;;;18.30;99.90;;;;;;4999648;28;20083;-77
2023/08/06 13:24:17;;;;;;;0.50;0.45;;;18.30;99.90;;;;;;4990836;28;20101;-77
2023/08/06 13:26:43;;;;;;;0.93;0.52;;;18.70;99.90;;;;;;4979928;28;20026;-76